sensor_id;sensor_type;location;lat;lon;timestamp;temperature;humidity
53310;DHT22;39197;53.200;5.792;2023-11-19T00:02:22;12.00;99.90
53310;DHT22;39197;53.200;5.792;2023-11-19T00:04:47;12.00;99.90
53310;DHT22;39197;53.200;5.792;2023-11-19T00:07:13;12.10;99.90
53310;DHT22;39197;53.200;5.792;2023-11-19T00:09:39;11.80;99.90
53310;DHT22;39197;53.200;5.792;2023-11-19T00:12:06;11.80;99.90
53310;DHT22;39197;53.200;5.792;2023-11-19T00:14:33;11.60;99.90
53310;DHT22;39197;53.200;5.792;2023-11-19T00:17:00;11.80;99.90
53310;DHT22;39197;53.200;5.792;2023-11-19T00:19:25;11.60;99.90
53310;DHT22;39197;53.200;5.792;2023-11-19T00:21:52;12.20;99.90
53310;DHT22;39197;53.200;5.792;2023-11-19T00:24:18;12.00;99.90
53310;DHT22;39197;53.200;5.792;2023-11-19T00:26:44;11.60;99.90
53310;DHT22;39197;53.200;5.792;2023-11-19T00:29:09;12.10;99.90
53310;DHT22;39197;53.200;5.792;2023-11-19T00:31:36;12.10;99.90
53310;DHT22;39197;53.200;5.792;2023-11-19T00:34:02;12.60;99.90
53310;DHT22;39197;53.200;5.792;2023-11-19T00:36:28;11.90;99.90
53310;DHT22;39197;53.200;5.792;2023-11-19T00:38:54;11.80;99.90
53310;DHT22;39197;53.200;5.792;2023-11-19T00:41:20;12.30;99.90
53310;DHT22;39197;53.200;5.792;2023-11-19T00:43:46;11.70;99.90
53310;DHT22;39197;53.200;5.792;2023-11-19T00:46:12;12.20;99.90
53310;DHT22;39197;53.200;5.792;2023-11-19T00:48:39;11.90;99.90
53310;DHT22;39197;53.200;5.792;2023-11-19T00:51:06;12.00;99.90
53310;DHT22;39197;53.200;5.792;2023-11-19T00:53:32;12.00;99.90
53310;DHT22;39197;53.200;5.792;2023-11-19T00:55:59;12.20;99.90
53310;DHT22;39197;53.200;5.792;2023-11-19T00:58:25;12.00;99.90
53310;DHT22;39197;53.200;5.792;2023-11-19T01:00:51;12.10;99.90
53310;DHT22;39197;53.200;5.792;2023-11-19T01:03:17;12.20;99.90
53310;DHT22;39197;53.200;5.792;2023-11-19T01:05:42;11.80;99.90
53310;DHT22;39197;53.200;5.792;2023-11-19T01:08:09;11.80;99.90
53310;DHT22;39197;53.200;5.792;2023-11-19T01:10:37;12.10;99.90
53310;DHT22;39197;53.200;5.792;2023-11-19T01:13:03;11.90;99.90
53310;DHT22;39197;53.200;5.792;2023-11-19T01:15:31;11.90;99.90
53310;DHT22;39197;53.200;5.792;2023-11-19T01:17:57;12.10;99.90
53310;DHT22;39197;53.200;5.792;2023-11-19T01:20:23;11.60;99.90
53310;DHT22;39197;53.200;5.792;2023-11-19T01:22:52;11.70;99.90
53310;DHT22;39197;53.200;5.792;2023-11-19T01:25:17;11.70;99.90
53310;DHT22;39197;53.200;5.792;2023-11-19T01:27:43;12.30;99.90
53310;DHT22;39197;53.200;5.792;2023-11-19T01:30:11;11.80;99.90
53310;DHT22;39197;53.200;5.792;2023-11-19T01:32:40;11.80;99.90
53310;DHT22;39197;53.200;5.792;2023-11-19T01:35:06;11.80;99.90
53310;DHT22;39197;53.200;5.792;2023-11-19T01:37:33;12.30;99.90
53310;DHT22;39197;53.200;5.792;2023-11-19T01:40:00;12.10;99.90
53310;DHT22;39197;53.200;5.792;2023-11-19T01:42:26;12.50;99.90
53310;DHT22;39197;53.200;5.792;2023-11-19T01:44:59;12.00;99.90
53310;DHT22;39197;53.200;5.792;2023-11-19T01:47:28;12.10;99.90
53310;DHT22;39197;53.200;5.792;2023-11-19T01:49:58;11.70;99.90
53310;DHT22;39197;53.200;5.792;2023-11-19T01:52:25;11.50;99.90
53310;DHT22;39197;53.200;5.792;2023-11-19T01:54:53;12.10;99.90
53310;DHT22;39197;53.200;5.792;2023-11-19T01:57:21;11.50;99.90
53310;DHT22;39197;53.200;5.792;2023-11-19T01:59:52;11.80;99.90
53310;DHT22;39197;53.200;5.792;2023-11-19T02:02:18;11.50;99.90
53310;DHT22;39197;53.200;5.792;2023-11-19T02:04:47;11.50;99.90
53310;DHT22;39197;53.200;5.792;2023-11-19T02:07:14;11.40;99.90
53310;DHT22;39197;53.200;5.792;2023-11-19T02:09:42;11.60;99.90
53310;DHT22;39197;53.200;5.792;2023-11-19T02:12:08;11.90;99.90
53310;DHT22;39197;53.200;5.792;2023-11-19T02:14:37;11.90;99.90
53310;DHT22;39197;53.200;5.792;2023-11-19T02:17:02;11.60;99.90
53310;DHT22;39197;53.200;5.792;2023-11-19T02:19:28;11.40;99.90
53310;DHT22;39197;53.200;5.792;2023-11-19T02:21:54;11.90;99.90
53310;DHT22;39197;53.200;5.792;2023-11-19T02:24:22;11.60;99.90
53310;DHT22;39197;53.200;5.792;2023-11-19T02:29:22;11.70;99.90
53310;DHT22;39197;53.200;5.792;2023-11-19T02:31:48;11.50;99.90
53310;DHT22;39197;53.200;5.792;2023-11-19T02:34:13;11.70;99.90
53310;DHT22;39197;53.200;5.792;2023-11-19T02:36:39;11.40;99.90
53310;DHT22;39197;53.200;5.792;2023-11-19T02:39:07;11.40;99.90
53310;DHT22;39197;53.200;5.792;2023-11-19T02:41:36;11.50;99.90
53310;DHT22;39197;53.200;5.792;2023-11-19T02:44:02;11.50;99.90
53310;DHT22;39197;53.200;5.792;2023-11-19T02:46:28;11.70;99.90
53310;DHT22;39197;53.200;5.792;2023-11-19T02:48:54;11.60;99.90
53310;DHT22;39197;53.200;5.792;2023-11-19T02:51:19;11.50;99.90
53310;DHT22;39197;53.200;5.792;2023-11-19T02:53:45;11.80;99.90
53310;DHT22;39197;53.200;5.792;2023-11-19T02:56:13;11.90;99.90
53310;DHT22;39197;53.200;5.792;2023-11-19T02:58:51;11.80;99.90
53310;DHT22;39197;53.200;5.792;2023-11-19T03:01:26;11.90;99.90
53310;DHT22;39197;53.200;5.792;2023-11-19T03:03:59;11.70;99.90
53310;DHT22;39197;53.200;5.792;2023-11-19T03:06:26;12.00;99.90
53310;DHT22;39197;53.200;5.792;2023-11-19T03:08:54;11.90;99.90
53310;DHT22;39197;53.200;5.792;2023-11-19T03:11:19;12.20;99.90
53310;DHT22;39197;53.200;5.792;2023-11-19T03:13:45;12.00;99.90
53310;DHT22;39197;53.200;5.792;2023-11-19T03:16:12;11.90;99.90
53310;DHT22;39197;53.200;5.792;2023-11-19T03:18:38;12.20;99.90
53310;DHT22;39197;53.200;5.792;2023-11-19T03:21:07;12.20;99.90
53310;DHT22;39197;53.200;5.792;2023-11-19T03:23:34;12.00;99.90
53310;DHT22;39197;53.200;5.792;2023-11-19T03:26:01;12.30;99.90
53310;DHT22;39197;53.200;5.792;2023-11-19T03:28:29;11.90;99.90
53310;DHT22;39197;53.200;5.792;2023-11-19T03:30:55;11.90;99.90
53310;DHT22;39197;53.200;5.792;2023-11-19T03:33:20;12.20;99.90
53310;DHT22;39197;53.200;5.792;2023-11-19T03:35:46;11.80;99.90
53310;DHT22;39197;53.200;5.792;2023-11-19T03:38:12;12.20;99.90
53310;DHT22;39197;53.200;5.792;2023-11-19T03:40:38;11.90;99.90
53310;DHT22;39197;53.200;5.792;2023-11-19T03:43:04;11.90;99.90
53310;DHT22;39197;53.200;5.792;2023-11-19T03:45:30;11.90;99.90
53310;DHT22;39197;53.200;5.792;2023-11-19T03:47:56;11.80;99.90
53310;DHT22;39197;53.200;5.792;2023-11-19T03:50:21;11.80;99.90
53310;DHT22;39197;53.200;5.792;2023-11-19T03:52:47;11.90;99.90
53310;DHT22;39197;53.200;5.792;2023-11-19T03:55:13;11.60;99.90
53310;DHT22;39197;53.200;5.792;2023-11-19T03:57:39;11.80;99.90
53310;DHT22;39197;53.200;5.792;2023-11-19T04:00:05;11.80;99.90
53310;DHT22;39197;53.200;5.792;2023-11-19T04:02:36;11.70;99.90
53310;DHT22;39197;53.200;5.792;2023-11-19T04:05:02;11.80;99.90
53310;DHT22;39197;53.200;5.792;2023-11-19T04:07:29;11.50;99.90
53310;DHT22;39197;53.200;5.792;2023-11-19T04:09:56;11.70;99.90
53310;DHT22;39197;53.200;5.792;2023-11-19T04:12:22;11.50;99.90
53310;DHT22;39197;53.200;5.792;2023-11-19T04:14:48;11.40;99.90
53310;DHT22;39197;53.200;5.792;2023-11-19T04:17:14;11.30;99.90
53310;DHT22;39197;53.200;5.792;2023-11-19T04:19:39;11.50;99.90
53310;DHT22;39197;53.200;5.792;2023-11-19T04:22:07;11.70;99.90
53310;DHT22;39197;53.200;5.792;2023-11-19T04:24:34;11.50;99.90
53310;DHT22;39197;53.200;5.792;2023-11-19T04:27:00;11.60;99.90
53310;DHT22;39197;53.200;5.792;2023-11-19T04:29:25;11.60;99.90
53310;DHT22;39197;53.200;5.792;2023-11-19T04:31:51;11.50;99.90
53310;DHT22;39197;53.200;5.792;2023-11-19T04:34:16;11.60;99.90
53310;DHT22;39197;53.200;5.792;2023-11-19T04:36:42;11.70;99.90
53310;DHT22;39197;53.200;5.792;2023-11-19T04:39:09;11.60;99.90
53310;DHT22;39197;53.200;5.792;2023-11-19T04:41:35;11.60;99.90
53310;DHT22;39197;53.200;5.792;2023-11-19T04:44:01;11.50;99.90
53310;DHT22;39197;53.200;5.792;2023-11-19T04:46:27;11.60;99.90
53310;DHT22;39197;53.200;5.792;2023-11-19T04:48:53;11.60;99.90
53310;DHT22;39197;53.200;5.792;2023-11-19T04:51:18;11.70;99.90
53310;DHT22;39197;53.200;5.792;2023-11-19T04:53:44;11.70;99.90
53310;DHT22;39197;53.200;5.792;2023-11-19T04:56:13;11.60;99.90
53310;DHT22;39197;53.200;5.792;2023-11-19T04:58:39;11.60;99.90
53310;DHT22;39197;53.200;5.792;2023-11-19T05:01:04;11.70;99.90
53310;DHT22;39197;53.200;5.792;2023-11-19T05:03:31;11.70;99.90
53310;DHT22;39197;53.200;5.792;2023-11-19T05:05:57;11.70;99.90
53310;DHT22;39197;53.200;5.792;2023-11-19T05:08:22;11.70;99.90
53310;DHT22;39197;53.200;5.792;2023-11-19T05:10:48;11.70;99.90
53310;DHT22;39197;53.200;5.792;2023-11-19T05:13:14;11.50;99.90
53310;DHT22;39197;53.200;5.792;2023-11-19T05:15:40;11.60;99.90
53310;DHT22;39197;53.200;5.792;2023-11-19T05:18:06;11.60;99.90
53310;DHT22;39197;53.200;5.792;2023-11-19T05:20:31;11.60;99.90
53310;DHT22;39197;53.200;5.792;2023-11-19T05:22:57;11.60;99.90
53310;DHT22;39197;53.200;5.792;2023-11-19T05:25:26;11.50;99.90
53310;DHT22;39197;53.200;5.792;2023-11-19T05:27:52;11.50;99.90
53310;DHT22;39197;53.200;5.792;2023-11-19T05:30:18;11.50;99.90
53310;DHT22;39197;53.200;5.792;2023-11-19T05:32:43;11.50;99.90
53310;DHT22;39197;53.200;5.792;2023-11-19T05:35:09;11.50;99.90
53310;DHT22;39197;53.200;5.792;2023-11-19T05:37:35;11.50;99.90
53310;DHT22;39197;53.200;5.792;2023-11-19T05:40:01;11.50;99.90
53310;DHT22;39197;53.200;5.792;2023-11-19T05:42:28;11.50;99.90
53310;DHT22;39197;53.200;5.792;2023-11-19T05:44:54;11.50;99.90
53310;DHT22;39197;53.200;5.792;2023-11-19T05:47:20;11.60;99.90
53310;DHT22;39197;53.200;5.792;2023-11-19T05:49:45;11.60;99.90
53310;DHT22;39197;53.200;5.792;2023-11-19T05:52:11;11.60;99.90
53310;DHT22;39197;53.200;5.792;2023-11-19T05:54:38;11.60;99.90
53310;DHT22;39197;53.200;5.792;2023-11-19T05:57:06;11.70;99.90
53310;DHT22;39197;53.200;5.792;2023-11-19T05:59:35;11.60;99.90
53310;DHT22;39197;53.200;5.792;2023-11-19T06:02:02;11.50;99.90
53310;DHT22;39197;53.200;5.792;2023-11-19T06:04:28;11.40;99.90
53310;DHT22;39197;53.200;5.792;2023-11-19T06:06:53;11.50;99.90
53310;DHT22;39197;53.200;5.792;2023-11-19T06:09:21;11.40;99.90
53310;DHT22;39197;53.200;5.792;2023-11-19T06:11:49;11.60;99.90
53310;DHT22;39197;53.200;5.792;2023-11-19T06:14:14;11.50;99.90
53310;DHT22;39197;53.200;5.792;2023-11-19T06:16:40;11.50;99.90
53310;DHT22;39197;53.200;5.792;2023-11-19T06:19:05;11.50;99.90
53310;DHT22;39197;53.200;5.792;2023-11-19T06:21:31;11.60;99.90
53310;DHT22;39197;53.200;5.792;2023-11-19T06:23:57;11.60;99.90
53310;DHT22;39197;53.200;5.792;2023-11-19T06:26:23;11.40;99.90
53310;DHT22;39197;53.200;5.792;2023-11-19T06:28:49;11.60;99.90
53310;DHT22;39197;53.200;5.792;2023-11-19T06:31:15;11.50;99.90
53310;DHT22;39197;53.200;5.792;2023-11-19T06:33:42;11.50;99.90
53310;DHT22;39197;53.200;5.792;2023-11-19T06:36:08;11.50;99.90
53310;DHT22;39197;53.200;5.792;2023-11-19T06:38:35;11.50;99.90
53310;DHT22;39197;53.200;5.792;2023-11-19T06:41:00;11.50;99.90
53310;DHT22;39197;53.200;5.792;2023-11-19T06:43:27;11.40;99.90
53310;DHT22;39197;53.200;5.792;2023-11-19T06:45:53;11.50;99.90
53310;DHT22;39197;53.200;5.792;2023-11-19T06:48:19;11.50;99.90
53310;DHT22;39197;53.200;5.792;2023-11-19T06:50:44;11.50;99.90
53310;DHT22;39197;53.200;5.792;2023-11-19T06:53:10;11.50;99.90
53310;DHT22;39197;53.200;5.792;2023-11-19T06:55:35;11.40;99.90
53310;DHT22;39197;53.200;5.792;2023-11-19T06:58:01;11.40;99.90
53310;DHT22;39197;53.200;5.792;2023-11-19T07:00:28;11.30;99.90
53310;DHT22;39197;53.200;5.792;2023-11-19T07:02:54;11.50;99.90
53310;DHT22;39197;53.200;5.792;2023-11-19T07:05:20;11.50;99.90
53310;DHT22;39197;53.200;5.792;2023-11-19T07:07:46;11.50;99.90
53310;DHT22;39197;53.200;5.792;2023-11-19T07:10:12;11.50;99.90
53310;DHT22;39197;53.200;5.792;2023-11-19T07:12:38;11.40;99.90
53310;DHT22;39197;53.200;5.792;2023-11-19T07:15:04;11.40;99.90
53310;DHT22;39197;53.200;5.792;2023-11-19T07:17:31;11.40;99.90
53310;DHT22;39197;53.200;5.792;2023-11-19T07:19:56;11.40;99.90
53310;DHT22;39197;53.200;5.792;2023-11-19T07:22:25;11.30;99.90
53310;DHT22;39197;53.200;5.792;2023-11-19T07:24:51;11.40;99.90
53310;DHT22;39197;53.200;5.792;2023-11-19T07:27:18;11.40;99.90
53310;DHT22;39197;53.200;5.792;2023-11-19T07:29:44;11.40;99.90
53310;DHT22;39197;53.200;5.792;2023-11-19T07:32:10;11.30;99.90
53310;DHT22;39197;53.200;5.792;2023-11-19T07:34:36;11.30;99.90
53310;DHT22;39197;53.200;5.792;2023-11-19T07:37:02;11.40;99.90
53310;DHT22;39197;53.200;5.792;2023-11-19T07:39:31;11.30;99.90
53310;DHT22;39197;53.200;5.792;2023-11-19T07:41:58;11.40;99.90
53310;DHT22;39197;53.200;5.792;2023-11-19T07:44:23;11.50;99.90
53310;DHT22;39197;53.200;5.792;2023-11-19T07:46:50;11.40;99.90
53310;DHT22;39197;53.200;5.792;2023-11-19T07:49:15;11.40;99.90
53310;DHT22;39197;53.200;5.792;2023-11-19T07:51:41;11.40;99.90
53310;DHT22;39197;53.200;5.792;2023-11-19T07:54:07;11.30;99.90
53310;DHT22;39197;53.200;5.792;2023-11-19T07:56:33;11.40;99.90
53310;DHT22;39197;53.200;5.792;2023-11-19T07:59:02;11.50;99.90
53310;DHT22;39197;53.200;5.792;2023-11-19T08:01:28;11.40;99.90
53310;DHT22;39197;53.200;5.792;2023-11-19T08:03:54;11.50;99.90
53310;DHT22;39197;53.200;5.792;2023-11-19T08:06:19;11.50;99.90
53310;DHT22;39197;53.200;5.792;2023-11-19T08:08:45;11.50;99.90
53310;DHT22;39197;53.200;5.792;2023-11-19T08:11:10;11.50;99.90
53310;DHT22;39197;53.200;5.792;2023-11-19T08:13:36;11.50;99.90
53310;DHT22;39197;53.200;5.792;2023-11-19T08:16:02;11.60;99.90
53310;DHT22;39197;53.200;5.792;2023-11-19T08:18:28;11.60;99.90
53310;DHT22;39197;53.200;5.792;2023-11-19T08:23:36;11.60;99.90
53310;DHT22;39197;53.200;5.792;2023-11-19T08:26:01;11.70;99.90
53310;DHT22;39197;53.200;5.792;2023-11-19T08:28:27;11.70;99.90
53310;DHT22;39197;53.200;5.792;2023-11-19T08:30:53;11.70;99.90
53310;DHT22;39197;53.200;5.792;2023-11-19T08:33:18;11.70;99.90
53310;DHT22;39197;53.200;5.792;2023-11-19T08:35:44;11.80;99.90
53310;DHT22;39197;53.200;5.792;2023-11-19T08:38:10;11.70;99.90
53310;DHT22;39197;53.200;5.792;2023-11-19T08:40:36;11.70;99.90
53310;DHT22;39197;53.200;5.792;2023-11-19T08:43:04;11.70;99.90
53310;DHT22;39197;53.200;5.792;2023-11-19T08:45:30;11.80;99.90
53310;DHT22;39197;53.200;5.792;2023-11-19T08:47:57;11.80;99.90
53310;DHT22;39197;53.200;5.792;2023-11-19T08:50:22;11.70;99.90
53310;DHT22;39197;53.200;5.792;2023-11-19T08:52:48;11.80;99.90
53310;DHT22;39197;53.200;5.792;2023-11-19T08:55:13;11.70;99.90
53310;DHT22;39197;53.200;5.792;2023-11-19T08:57:39;11.80;99.90
53310;DHT22;39197;53.200;5.792;2023-11-19T09:00:05;11.80;99.90
53310;DHT22;39197;53.200;5.792;2023-11-19T09:02:35;11.80;99.90
53310;DHT22;39197;53.200;5.792;2023-11-19T09:05:02;11.90;99.90
53310;DHT22;39197;53.200;5.792;2023-11-19T09:07:28;11.90;99.90
53310;DHT22;39197;53.200;5.792;2023-11-19T09:09:54;12.00;99.90
53310;DHT22;39197;53.200;5.792;2023-11-19T09:12:19;12.00;99.90
53310;DHT22;39197;53.200;5.792;2023-11-19T09:14:45;12.00;99.90
53310;DHT22;39197;53.200;5.792;2023-11-19T09:17:11;12.10;99.90
53310;DHT22;39197;53.200;5.792;2023-11-19T09:19:37;12.20;99.90
53310;DHT22;39197;53.200;5.792;2023-11-19T09:22:02;12.30;99.90
53310;DHT22;39197;53.200;5.792;2023-11-19T09:24:28;12.40;99.90
53310;DHT22;39197;53.200;5.792;2023-11-19T09:26:53;12.40;99.90
53310;DHT22;39197;53.200;5.792;2023-11-19T09:29:20;12.40;99.90
53310;DHT22;39197;53.200;5.792;2023-11-19T09:31:46;12.40;99.90
53310;DHT22;39197;53.200;5.792;2023-11-19T09:34:12;12.50;99.90
53310;DHT22;39197;53.200;5.792;2023-11-19T09:36:38;12.40;99.90
53310;DHT22;39197;53.200;5.792;2023-11-19T09:39:04;12.50;99.90
53310;DHT22;39197;53.200;5.792;2023-11-19T09:41:31;12.50;99.90
53310;DHT22;39197;53.200;5.792;2023-11-19T09:43:57;12.50;99.90
53310;DHT22;39197;53.200;5.792;2023-11-19T09:46:23;12.50;99.90
53310;DHT22;39197;53.200;5.792;2023-11-19T09:48:53;12.60;99.90
53310;DHT22;39197;53.200;5.792;2023-11-19T09:51:20;12.60;99.90
53310;DHT22;39197;53.200;5.792;2023-11-19T09:53:45;12.50;99.90
53310;DHT22;39197;53.200;5.792;2023-11-19T09:56:11;12.50;99.90
53310;DHT22;39197;53.200;5.792;2023-11-19T09:58:37;12.40;99.90
53310;DHT22;39197;53.200;5.792;2023-11-19T10:01:03;12.40;99.90
53310;DHT22;39197;53.200;5.792;2023-11-19T10:03:35;12.40;99.90
53310;DHT22;39197;53.200;5.792;2023-11-19T10:06:05;12.40;99.90
53310;DHT22;39197;53.200;5.792;2023-11-19T10:08:32;12.40;99.90
53310;DHT22;39197;53.200;5.792;2023-11-19T10:10:57;12.40;99.90
53310;DHT22;39197;53.200;5.792;2023-11-19T10:13:28;12.50;99.90
53310;DHT22;39197;53.200;5.792;2023-11-19T10:15:55;12.40;99.90
53310;DHT22;39197;53.200;5.792;2023-11-19T10:18:26;12.50;99.90
53310;DHT22;39197;53.200;5.792;2023-11-19T10:20:52;12.50;99.90
53310;DHT22;39197;53.200;5.792;2023-11-19T10:23:18;12.50;99.90
53310;DHT22;39197;53.200;5.792;2023-11-19T10:25:43;12.50;99.90
53310;DHT22;39197;53.200;5.792;2023-11-19T10:28:09;12.60;99.90
53310;DHT22;39197;53.200;5.792;2023-11-19T10:30:35;12.70;99.90
53310;DHT22;39197;53.200;5.792;2023-11-19T10:33:08;12.60;99.90
53310;DHT22;39197;53.200;5.792;2023-11-19T10:35:35;12.60;99.90
53310;DHT22;39197;53.200;5.792;2023-11-19T10:38:13;12.70;99.90
53310;DHT22;39197;53.200;5.792;2023-11-19T10:40:40;12.50;99.90
53310;DHT22;39197;53.200;5.792;2023-11-19T10:43:06;12.60;99.90
53310;DHT22;39197;53.200;5.792;2023-11-19T10:45:33;12.60;99.90
53310;DHT22;39197;53.200;5.792;2023-11-19T10:47:59;12.60;99.90
53310;DHT22;39197;53.200;5.792;2023-11-19T10:50:26;12.60;99.90
53310;DHT22;39197;53.200;5.792;2023-11-19T10:53:01;12.60;99.90
53310;DHT22;39197;53.200;5.792;2023-11-19T10:55:28;12.60;99.90
53310;DHT22;39197;53.200;5.792;2023-11-19T10:58:00;12.60;99.90
53310;DHT22;39197;53.200;5.792;2023-11-19T11:01:11;12.70;99.90
53310;DHT22;39197;53.200;5.792;2023-11-19T11:03:22;12.60;99.90
53310;DHT22;39197;53.200;5.792;2023-11-19T11:05:52;12.60;99.90
53310;DHT22;39197;53.200;5.792;2023-11-19T11:08:18;12.70;99.90
53310;DHT22;39197;53.200;5.792;2023-11-19T11:10:55;12.60;99.90
53310;DHT22;39197;53.200;5.792;2023-11-19T11:13:23;12.60;99.90
53310;DHT22;39197;53.200;5.792;2023-11-19T11:15:50;12.60;99.90
53310;DHT22;39197;53.200;5.792;2023-11-19T11:18:17;12.70;99.90
53310;DHT22;39197;53.200;5.792;2023-11-19T11:20:45;12.60;99.90
53310;DHT22;39197;53.200;5.792;2023-11-19T11:23:30;12.50;99.90
53310;DHT22;39197;53.200;5.792;2023-11-19T11:28:41;12.60;99.90
53310;DHT22;39197;53.200;5.792;2023-11-19T11:34:40;12.60;99.90
53310;DHT22;39197;53.200;5.792;2023-11-19T11:39:35;12.70;99.90
53310;DHT22;39197;53.200;5.792;2023-11-19T11:50:20;13.30;99.90
53310;DHT22;39197;53.200;5.792;2023-11-19T11:56:12;13.70;99.90
53310;DHT22;39197;53.200;5.792;2023-11-19T11:58:12;13.80;99.90
53310;DHT22;39197;53.200;5.792;2023-11-19T12:00:41;13.70;99.90
53310;DHT22;39197;53.200;5.792;2023-11-19T12:03:08;13.60;99.90
53310;DHT22;39197;53.200;5.792;2023-11-19T12:05:38;13.50;99.90
53310;DHT22;39197;53.200;5.792;2023-11-19T12:08:06;13.30;99.90
53310;DHT22;39197;53.200;5.792;2023-11-19T12:10:38;13.30;99.90
53310;DHT22;39197;53.200;5.792;2023-11-19T12:13:09;13.30;99.90
53310;DHT22;39197;53.200;5.792;2023-11-19T12:18:28;13.20;99.90
53310;DHT22;39197;53.200;5.792;2023-11-19T12:20:54;13.00;99.90
53310;DHT22;39197;53.200;5.792;2023-11-19T12:23:19;13.20;99.90
53310;DHT22;39197;53.200;5.792;2023-11-19T12:25:46;13.20;99.90
53310;DHT22;39197;53.200;5.792;2023-11-19T12:28:13;13.20;99.90
53310;DHT22;39197;53.200;5.792;2023-11-19T12:30:40;13.10;99.90
53310;DHT22;39197;53.200;5.792;2023-11-19T12:33:09;13.30;99.90
53310;DHT22;39197;53.200;5.792;2023-11-19T12:35:39;13.30;99.90
53310;DHT22;39197;53.200;5.792;2023-11-19T12:38:05;13.10;99.90
53310;DHT22;39197;53.200;5.792;2023-11-19T12:40:31;13.30;99.90
53310;DHT22;39197;53.200;5.792;2023-11-19T12:42:57;13.30;99.90
53310;DHT22;39197;53.200;5.792;2023-11-19T12:45:24;13.40;99.90
53310;DHT22;39197;53.200;5.792;2023-11-19T12:47:50;13.40;99.90
53310;DHT22;39197;53.200;5.792;2023-11-19T12:50:18;13.50;99.90
53310;DHT22;39197;53.200;5.792;2023-11-19T12:52:55;13.50;99.90
53310;DHT22;39197;53.200;5.792;2023-11-19T12:55:29;13.60;99.90
53310;DHT22;39197;53.200;5.792;2023-11-19T12:57:55;13.60;99.90
53310;DHT22;39197;53.200;5.792;2023-11-19T13:00:22;13.50;99.90
53310;DHT22;39197;53.200;5.792;2023-11-19T13:02:50;13.40;99.90
53310;DHT22;39197;53.200;5.792;2023-11-19T13:08:01;13.20;99.90
53310;DHT22;39197;53.200;5.792;2023-11-19T13:10:28;13.30;99.90
53310;DHT22;39197;53.200;5.792;2023-11-19T13:13:05;13.00;99.90
53310;DHT22;39197;53.200;5.792;2023-11-19T13:15:32;12.90;99.90
53310;DHT22;39197;53.200;5.792;2023-11-19T13:17:58;12.90;99.90
53310;DHT22;39197;53.200;5.792;2023-11-19T13:20:24;12.70;99.90
53310;DHT22;39197;53.200;5.792;2023-11-19T13:23:01;12.80;99.90
53310;DHT22;39197;53.200;5.792;2023-11-19T13:25:28;12.70;99.90
53310;DHT22;39197;53.200;5.792;2023-11-19T13:27:54;12.70;99.90
53310;DHT22;39197;53.200;5.792;2023-11-19T13:30:20;12.60;99.90
53310;DHT22;39197;53.200;5.792;2023-11-19T13:32:47;12.60;99.90
53310;DHT22;39197;53.200;5.792;2023-11-19T13:35:13;12.60;99.90
53310;DHT22;39197;53.200;5.792;2023-11-19T13:37:39;12.50;99.90
53310;DHT22;39197;53.200;5.792;2023-11-19T13:40:07;12.40;99.90
53310;DHT22;39197;53.200;5.792;2023-11-19T13:42:33;12.50;99.90
53310;DHT22;39197;53.200;5.792;2023-11-19T13:44:58;12.30;99.90
53310;DHT22;39197;53.200;5.792;2023-11-19T13:47:24;12.30;99.90
53310;DHT22;39197;53.200;5.792;2023-11-19T13:49:50;12.40;99.90
53310;DHT22;39197;53.200;5.792;2023-11-19T13:52:15;12.40;99.90
53310;DHT22;39197;53.200;5.792;2023-11-19T13:54:41;12.40;99.90
53310;DHT22;39197;53.200;5.792;2023-11-19T13:57:07;12.50;99.90
53310;DHT22;39197;53.200;5.792;2023-11-19T13:59:32;12.40;99.90
53310;DHT22;39197;53.200;5.792;2023-11-19T14:01:58;12.40;99.90
53310;DHT22;39197;53.200;5.792;2023-11-19T14:04:24;12.40;99.90
53310;DHT22;39197;53.200;5.792;2023-11-19T14:06:50;12.30;99.90
53310;DHT22;39197;53.200;5.792;2023-11-19T14:09:16;12.40;99.90
53310;DHT22;39197;53.200;5.792;2023-11-19T14:11:41;12.30;99.90
53310;DHT22;39197;53.200;5.792;2023-11-19T14:14:07;12.40;99.90
53310;DHT22;39197;53.200;5.792;2023-11-19T14:16:33;12.40;99.90
53310;DHT22;39197;53.200;5.792;2023-11-19T14:18:59;12.30;99.90
53310;DHT22;39197;53.200;5.792;2023-11-19T14:21:29;12.30;99.90
53310;DHT22;39197;53.200;5.792;2023-11-19T14:23:54;12.30;99.90
53310;DHT22;39197;53.200;5.792;2023-11-19T14:26:20;12.30;99.90
53310;DHT22;39197;53.200;5.792;2023-11-19T14:28:46;12.20;99.90
53310;DHT22;39197;53.200;5.792;2023-11-19T14:31:11;12.10;99.90
53310;DHT22;39197;53.200;5.792;2023-11-19T14:33:37;12.20;99.90
53310;DHT22;39197;53.200;5.792;2023-11-19T14:36:04;12.30;99.90
53310;DHT22;39197;53.200;5.792;2023-11-19T14:38:29;12.20;99.90
53310;DHT22;39197;53.200;5.792;2023-11-19T14:40:56;12.20;99.90
53310;DHT22;39197;53.200;5.792;2023-11-19T14:43:22;12.30;99.90
53310;DHT22;39197;53.200;5.792;2023-11-19T14:45:47;12.20;99.90
53310;DHT22;39197;53.200;5.792;2023-11-19T14:48:13;12.20;99.90
53310;DHT22;39197;53.200;5.792;2023-11-19T14:50:39;12.20;99.90
53310;DHT22;39197;53.200;5.792;2023-11-19T14:53:05;12.10;99.90
53310;DHT22;39197;53.200;5.792;2023-11-19T14:55:31;12.10;99.90
53310;DHT22;39197;53.200;5.792;2023-11-19T14:57:57;12.10;99.90
53310;DHT22;39197;53.200;5.792;2023-11-19T15:00:22;12.10;99.90
53310;DHT22;39197;53.200;5.792;2023-11-19T15:02:48;12.10;99.90
53310;DHT22;39197;53.200;5.792;2023-11-19T15:05:13;12.10;99.90
53310;DHT22;39197;53.200;5.792;2023-11-19T15:07:40;12.10;99.90
53310;DHT22;39197;53.200;5.792;2023-11-19T15:10:06;12.10;99.90
53310;DHT22;39197;53.200;5.792;2023-11-19T15:12:39;12.00;99.90
53310;DHT22;39197;53.200;5.792;2023-11-19T15:15:09;12.00;99.90
53310;DHT22;39197;53.200;5.792;2023-11-19T15:17:35;12.00;99.90
53310;DHT22;39197;53.200;5.792;2023-11-19T15:20:03;12.00;99.90
53310;DHT22;39197;53.200;5.792;2023-11-19T15:22:29;11.90;99.90
53310;DHT22;39197;53.200;5.792;2023-11-19T15:24:54;11.90;99.90
53310;DHT22;39197;53.200;5.792;2023-11-19T15:27:20;11.80;99.90
53310;DHT22;39197;53.200;5.792;2023-11-19T15:29:46;11.60;99.90
53310;DHT22;39197;53.200;5.792;2023-11-19T15:32:11;11.50;99.90
53310;DHT22;39197;53.200;5.792;2023-11-19T15:34:37;11.40;99.90
53310;DHT22;39197;53.200;5.792;2023-11-19T15:37:03;11.30;99.90
53310;DHT22;39197;53.200;5.792;2023-11-19T15:39:29;11.30;99.90
53310;DHT22;39197;53.200;5.792;2023-11-19T15:41:55;11.20;99.90
53310;DHT22;39197;53.200;5.792;2023-11-19T15:44:23;11.00;99.90
53310;DHT22;39197;53.200;5.792;2023-11-19T15:46:49;11.10;99.90
53310;DHT22;39197;53.200;5.792;2023-11-19T15:49:15;11.00;99.90
53310;DHT22;39197;53.200;5.792;2023-11-19T15:51:42;11.10;99.90
53310;DHT22;39197;53.200;5.792;2023-11-19T15:54:07;11.10;99.90
53310;DHT22;39197;53.200;5.792;2023-11-19T15:56:33;11.10;99.90
53310;DHT22;39197;53.200;5.792;2023-11-19T15:58:59;11.10;99.90